createdAt,value
2023-02-28T00:01:38.064Z,1.33
2023-02-28T00:04:06.759Z,1.40
2023-02-28T00:06:35.344Z,1.42
2023-02-28T00:09:03.936Z,1.55
2023-02-28T00:11:32.717Z,1.50
2023-02-28T00:14:02.796Z,1.40
2023-02-28T00:16:31.390Z,1.83
2023-02-28T00:18:59.959Z,1.65
2023-02-28T00:21:28.877Z,1.50
2023-02-28T00:23:57.630Z,1.70
2023-02-28T00:26:26.345Z,1.60
2023-02-28T00:28:54.917Z,1.70
2023-02-28T00:31:25.074Z,1.48
2023-02-28T00:33:53.625Z,1.52
2023-02-28T00:36:22.202Z,1.42
2023-02-28T00:38:50.774Z,1.60
2023-02-28T00:41:19.335Z,1.38
2023-02-28T00:43:47.884Z,1.70
2023-02-28T00:46:16.520Z,1.58
2023-02-28T00:48:46.492Z,1.52
2023-02-28T00:51:15.116Z,1.50
2023-02-28T00:53:43.877Z,1.58
2023-02-28T00:56:12.714Z,1.58
2023-02-28T00:58:41.679Z,1.53
2023-02-28T01:01:10.414Z,1.40
2023-02-28T01:03:39.320Z,1.40
2023-02-28T01:06:09.579Z,1.70
2023-02-28T01:08:38.118Z,1.70
2023-02-28T01:11:11.327Z,1.40
2023-02-28T01:13:39.968Z,1.70
2023-02-28T01:16:09.516Z,1.60
2023-02-28T01:18:38.677Z,1.33
2023-02-28T01:21:09.814Z,1.70
2023-02-28T01:23:38.373Z,1.70
2023-02-28T01:26:08.491Z,2.10
2023-02-28T01:28:37.810Z,1.88
2023-02-28T01:31:06.785Z,1.90
2023-02-28T01:33:35.821Z,1.90
2023-02-28T01:36:06.943Z,1.95
2023-02-28T01:38:36.947Z,1.80
2023-02-28T01:41:05.805Z,1.60
2023-02-28T01:43:53.892Z,1.75
2023-02-28T01:46:22.478Z,1.87
2023-02-28T01:48:54.823Z,1.60
2023-02-28T01:51:28.091Z,1.60
2023-02-28T01:54:03.590Z,1.50
2023-02-28T01:56:36.778Z,1.90
2023-02-28T01:59:06.132Z,1.70
2023-02-28T02:01:34.871Z,1.77
2023-02-28T02:04:05.481Z,1.75
2023-02-28T02:06:39.327Z,1.60
2023-02-28T02:09:09.190Z,1.70
2023-02-28T02:11:38.922Z,1.60
2023-02-28T02:14:41.219Z,1.70
2023-02-28T02:17:20.989Z,1.50
2023-02-28T02:20:21.290Z,1.60
2023-02-28T02:23:21.375Z,1.60
2023-02-28T02:30:18.680Z,1.58
2023-02-28T02:33:32.069Z,1.80
2023-02-28T02:36:08.573Z,1.38
2023-02-28T02:38:41.033Z,1.30
2023-02-28T02:41:18.529Z,1.23
2023-02-28T02:43:51.745Z,1.75
2023-02-28T02:46:24.005Z,1.70
2023-02-28T02:48:56.913Z,1.35
2023-02-28T02:51:27.994Z,1.42
2023-02-28T02:54:00.381Z,1.40
2023-02-28T02:56:33.705Z,1.50
2023-02-28T02:59:06.308Z,1.40
2023-02-28T03:01:36.931Z,1.40
2023-02-28T03:04:09.675Z,1.70
2023-02-28T03:06:39.765Z,1.40
2023-02-28T03:09:08.341Z,1.27
2023-02-28T03:11:39.582Z,1.50
2023-02-28T03:17:01.200Z,1.60
2023-02-28T03:19:46.382Z,1.60
2023-02-28T03:22:32.056Z,1.60
2023-02-28T03:25:08.308Z,1.50
2023-02-28T03:27:44.209Z,1.33
2023-02-28T03:30:17.840Z,1.27
2023-02-28T03:32:55.106Z,1.60
2023-02-28T03:35:27.921Z,1.50
2023-02-28T03:38:06.935Z,1.42
2023-02-28T03:40:38.586Z,1.55
2023-02-28T03:43:13.539Z,1.33
2023-02-28T03:45:43.544Z,1.52
2023-02-28T03:48:17.219Z,1.42
2023-02-28T03:50:47.928Z,1.50
2023-02-28T03:53:21.815Z,1.40
2023-02-28T03:55:54.812Z,1.40
2023-02-28T03:58:29.652Z,1.50
2023-02-28T04:01:09.176Z,1.80
2023-02-28T04:03:39.400Z,1.38
2023-02-28T04:06:15.163Z,1.58
2023-02-28T04:08:45.092Z,1.27
2023-02-28T04:11:22.802Z,1.70
2023-02-28T04:13:51.622Z,1.27
2023-02-28T04:16:33.931Z,1.48
2023-02-28T04:19:05.959Z,1.70
2023-02-28T04:21:36.743Z,1.40
2023-02-28T04:24:07.789Z,1.50
2023-02-28T04:26:38.533Z,1.63
2023-02-28T04:29:08.425Z,1.35
2023-02-28T04:31:37.299Z,1.52
2023-02-28T04:34:06.598Z,1.63
2023-02-28T04:36:35.516Z,1.30
2023-02-28T04:39:06.092Z,1.60
2023-02-28T04:41:35.673Z,1.57
2023-02-28T04:44:04.585Z,1.60
2023-02-28T04:46:33.163Z,1.50
2023-02-28T04:49:01.750Z,1.55
2023-02-28T04:51:30.733Z,1.65
2023-02-28T04:53:59.837Z,1.52
2023-02-28T04:56:29.794Z,1.73
2023-02-28T04:58:58.487Z,1.38
2023-02-28T05:01:29.355Z,1.30
2023-02-28T05:03:59.441Z,1.38
2023-02-28T05:06:30.078Z,1.48
2023-02-28T05:08:59.194Z,1.30
2023-02-28T05:11:34.928Z,1.63
2023-02-28T05:14:04.904Z,1.40
2023-02-28T05:16:34.240Z,1.60
2023-02-28T05:19:02.867Z,1.60
2023-02-28T05:21:33.828Z,1.50
2023-02-28T05:24:04.047Z,1.42
2023-02-28T05:26:37.482Z,1.67
2023-02-28T05:29:06.132Z,1.50
2023-02-28T05:31:35.074Z,1.50
2023-02-28T05:34:05.155Z,1.60
2023-02-28T05:36:33.860Z,1.52
2023-02-28T05:39:02.696Z,1.70
2023-02-28T05:41:31.561Z,1.63
2023-02-28T05:44:02.396Z,1.52
2023-02-28T05:46:31.000Z,1.55
2023-02-28T05:49:01.297Z,1.55
2023-02-28T05:51:30.812Z,1.35
2023-02-28T05:54:02.503Z,1.60
2023-02-28T05:56:31.566Z,1.70
2023-02-28T05:59:01.510Z,1.53
2023-02-28T06:01:35.479Z,1.70
2023-02-28T06:04:05.397Z,1.60
2023-02-28T06:06:36.877Z,1.58
2023-02-28T06:09:06.617Z,1.65
2023-02-28T06:11:35.542Z,1.52
2023-02-28T06:14:06.394Z,1.65
2023-02-28T06:16:36.328Z,1.67
2023-02-28T06:19:06.057Z,1.38
2023-02-28T06:21:34.816Z,1.55
2023-02-28T06:24:04.056Z,1.48
2023-02-28T06:26:33.067Z,1.40
2023-02-28T06:29:02.526Z,1.70
2023-02-28T06:31:33.026Z,1.80
2023-02-28T06:34:01.837Z,1.50
2023-02-28T06:36:30.490Z,1.52
2023-02-28T06:38:59.204Z,1.60
2023-02-28T06:41:29.522Z,1.80
2023-02-28T06:43:58.803Z,1.50
2023-02-28T06:46:27.373Z,1.52
2023-02-28T06:48:57.372Z,1.73
2023-02-28T06:51:25.958Z,1.70
2023-02-28T06:53:54.587Z,1.50
2023-02-28T06:56:23.151Z,1.60
2023-02-28T06:58:53.823Z,1.70
2023-02-28T07:01:24.021Z,1.63
2023-02-28T07:03:53.389Z,1.60
2023-02-28T07:06:24.701Z,1.75
2023-02-28T07:08:54.850Z,1.40
2023-02-28T07:11:26.706Z,2.00
2023-02-28T07:13:55.585Z,1.83
2023-02-28T07:16:27.264Z,1.85
2023-02-28T07:18:56.463Z,1.70
2023-02-28T07:21:26.446Z,1.70
2023-02-28T07:23:55.066Z,1.63
2023-02-28T07:26:36.195Z,1.73
2023-02-28T07:29:04.823Z,1.80
2023-02-28T07:31:33.485Z,2.00
2023-02-28T07:34:02.118Z,2.00
2023-02-28T07:36:32.038Z,1.60
2023-02-28T07:39:01.741Z,1.95
2023-02-28T07:41:31.211Z,1.88
2023-02-28T07:44:00.718Z,1.90
2023-02-28T07:46:30.927Z,1.80
2023-02-28T07:49:00.632Z,1.60
2023-02-28T07:51:29.626Z,1.73
2023-02-28T07:53:59.939Z,1.98
2023-02-28T07:56:29.105Z,1.88
2023-02-28T07:58:57.846Z,1.70
2023-02-28T08:01:26.487Z,1.70
2023-02-28T08:03:55.919Z,1.63
2023-02-28T08:06:26.426Z,1.93
2023-02-28T08:08:57.180Z,1.60
2023-02-28T08:11:27.177Z,2.10
2023-02-28T08:13:56.985Z,1.67
2023-02-28T08:16:25.605Z,1.92
2023-02-28T08:18:55.132Z,2.13
2023-02-28T08:21:24.178Z,2.13
2023-02-28T08:23:53.658Z,2.10
2023-02-28T08:26:22.611Z,2.10
2023-02-28T08:28:52.992Z,1.98
2023-02-28T08:31:21.931Z,2.00
2023-02-28T08:33:52.117Z,1.85
2023-02-28T08:36:21.406Z,1.83
2023-02-28T08:38:50.025Z,2.10
2023-02-28T08:41:18.821Z,1.52
2023-02-28T08:43:47.440Z,2.10
2023-02-28T08:46:17.507Z,2.00
2023-02-28T08:48:46.306Z,2.05
2023-02-28T08:51:19.657Z,2.20
2023-02-28T08:53:50.364Z,2.10
2023-02-28T08:56:19.779Z,2.00
2023-02-28T08:58:50.822Z,1.83
2023-02-28T09:01:22.853Z,1.63
2023-02-28T09:03:53.130Z,2.00
2023-02-28T09:06:23.667Z,2.08
2023-02-28T09:08:52.840Z,1.73
2023-02-28T09:11:21.932Z,1.98
2023-02-28T09:13:50.476Z,1.95
2023-02-28T09:16:21.577Z,1.65
2023-02-28T09:18:50.410Z,1.85
2023-02-28T09:21:21.348Z,1.55
2023-02-28T09:23:52.338Z,1.87
2023-02-28T09:26:23.287Z,1.92
2023-02-28T09:28:52.791Z,1.83
2023-02-28T09:31:25.344Z,1.90
2023-02-28T09:33:55.974Z,1.77
2023-02-28T09:36:34.557Z,1.50
2023-02-28T09:39:10.482Z,2.20
2023-02-28T09:41:48.537Z,1.83
2023-02-28T09:44:25.603Z,2.00
2023-02-28T09:47:00.402Z,2.00
2023-02-28T09:49:38.872Z,1.90
2023-02-28T09:52:12.589Z,1.80
2023-02-28T09:54:41.576Z,2.03
2023-02-28T09:57:16.694Z,1.80
2023-02-28T09:59:56.898Z,2.03
2023-02-28T10:02:53.951Z,1.95
2023-02-28T10:05:25.738Z,1.95
2023-02-28T10:08:06.134Z,2.00
2023-02-28T10:10:41.059Z,1.50
2023-02-28T10:13:17.966Z,1.80
2023-02-28T10:15:49.537Z,1.80
2023-02-28T10:18:26.673Z,2.00
2023-02-28T10:20:57.844Z,1.85
2023-02-28T10:23:30.367Z,1.80
2023-02-28T10:26:03.285Z,1.93
2023-02-28T10:28:34.985Z,1.83
2023-02-28T10:31:04.276Z,1.67
2023-02-28T10:33:36.513Z,1.90
2023-02-28T10:36:07.833Z,1.80
2023-02-28T10:38:38.921Z,1.30
2023-02-28T10:41:09.891Z,1.60
2023-02-28T10:43:39.772Z,1.70
2023-02-28T10:46:16.456Z,1.67
2023-02-28T10:48:50.913Z,1.60
2023-02-28T10:51:21.569Z,1.50
2023-02-28T10:54:03.013Z,1.58
2023-02-28T10:56:32.449Z,2.00
2023-02-28T10:59:02.488Z,1.95
2023-02-28T11:01:40.820Z,1.67
2023-02-28T11:04:36.945Z,1.90
2023-02-28T11:07:08.400Z,1.67
2023-02-28T11:09:40.614Z,1.77
2023-02-28T11:12:21.858Z,1.50
2023-02-28T11:14:53.045Z,1.50
2023-02-28T11:17:24.879Z,1.63
2023-02-28T11:19:58.252Z,1.80
2023-02-28T11:22:30.170Z,1.60
2023-02-28T11:25:03.557Z,1.65
2023-02-28T11:27:50.621Z,1.58
2023-02-28T11:30:34.849Z,1.70
2023-02-28T11:33:20.843Z,1.52
2023-02-28T11:35:52.059Z,1.65
2023-02-28T11:38:20.640Z,1.75
2023-02-28T11:40:58.384Z,1.58
2023-02-28T11:43:42.010Z,1.50
2023-02-28T11:46:23.347Z,1.55
2023-02-28T11:49:00.563Z,1.58
2023-02-28T11:51:36.682Z,1.35
2023-02-28T11:54:19.440Z,1.50
2023-02-28T11:56:54.473Z,1.40
2023-02-28T11:59:45.310Z,1.67
2023-02-28T12:02:29.289Z,1.55
2023-02-28T12:05:25.921Z,1.50
2023-02-28T12:08:14.308Z,1.65
2023-02-28T12:10:54.839Z,1.70
2023-02-28T12:13:31.601Z,1.55
2023-02-28T12:16:25.438Z,1.70
2023-02-28T12:19:09.150Z,1.60
2023-02-28T12:21:50.802Z,1.60
2023-02-28T12:25:01.360Z,1.50
2023-02-28T12:27:35.397Z,1.50
2023-02-28T12:30:08.234Z,1.52
2023-02-28T12:32:40.524Z,1.45
2023-02-28T12:35:16.699Z,1.30
2023-02-28T12:37:51.552Z,1.60
2023-02-28T12:40:23.050Z,1.50
2023-02-28T12:42:58.718Z,1.55
2023-02-28T12:45:33.777Z,1.55
2023-02-28T12:48:06.254Z,1.60
2023-02-28T12:50:37.178Z,1.58
2023-02-28T12:53:12.050Z,1.65
2023-02-28T12:55:49.166Z,1.43
2023-02-28T12:58:29.907Z,1.60
2023-02-28T13:01:31.982Z,1.77
2023-02-28T13:04:34.217Z,1.60
2023-02-28T13:07:32.293Z,1.50
2023-02-28T13:10:03.935Z,1.73
2023-02-28T13:12:32.672Z,1.40
2023-02-28T13:15:22.483Z,1.42
2023-02-28T13:17:53.692Z,1.52
2023-02-28T13:20:25.391Z,1.53
2023-02-28T13:22:56.115Z,1.38
2023-02-28T13:25:55.753Z,1.50
2023-02-28T13:29:09.414Z,1.60
2023-02-28T13:32:20.544Z,1.60
2023-02-28T13:35:16.582Z,1.40
2023-02-28T13:37:46.413Z,1.80
2023-02-28T13:40:38.029Z,1.42
2023-02-28T13:43:11.037Z,1.48
2023-02-28T13:45:40.772Z,1.70
2023-02-28T13:48:21.141Z,1.73
2023-02-28T13:50:51.201Z,1.50
2023-02-28T13:53:48.289Z,1.67
2023-02-28T13:56:43.188Z,1.70
2023-02-28T13:59:27.403Z,1.50
2023-02-28T14:02:31.472Z,1.70
2023-02-28T14:05:07.632Z,1.85
2023-02-28T14:07:45.698Z,1.73
2023-02-28T14:10:26.285Z,1.70
2023-02-28T14:13:01.282Z,1.63
2023-02-28T14:15:45.942Z,1.75
2023-02-28T14:18:22.478Z,1.80
2023-02-28T14:20:55.037Z,1.70
2023-02-28T14:23:47.380Z,1.48
2023-02-28T14:26:31.264Z,1.80
2023-02-28T14:29:16.633Z,1.70
2023-02-28T14:31:53.368Z,1.48
2023-02-28T14:34:44.108Z,1.50
2023-02-28T14:37:19.112Z,1.45
2023-02-28T14:39:51.256Z,1.40
2023-02-28T14:42:34.090Z,1.58
2023-02-28T14:45:03.215Z,1.50
2023-02-28T14:47:35.037Z,1.60
2023-02-28T14:50:06.356Z,1.45
2023-02-28T14:52:35.701Z,1.75
2023-02-28T14:55:11.510Z,1.40
2023-02-28T14:57:51.965Z,1.65
2023-02-28T15:00:25.639Z,1.67
2023-02-28T15:02:55.108Z,1.60
2023-02-28T15:05:30.618Z,1.70
2023-02-28T15:08:13.593Z,1.60
2023-02-28T15:10:46.367Z,1.63
2023-02-28T15:13:17.201Z,2.00
2023-02-28T15:16:05.437Z,1.77
2023-02-28T15:18:40.630Z,1.50
2023-02-28T15:21:14.099Z,1.60
2023-02-28T15:23:46.277Z,1.60
2023-02-28T15:26:19.048Z,1.50
2023-02-28T15:28:48.709Z,1.60
2023-02-28T15:31:29.828Z,1.60
2023-02-28T15:34:05.534Z,1.60
2023-02-28T15:36:38.259Z,1.58
2023-02-28T15:39:22.035Z,1.70
2023-02-28T15:41:52.702Z,1.60
2023-02-28T15:44:30.786Z,1.73
2023-02-28T15:47:04.853Z,1.75
2023-02-28T15:49:44.877Z,1.70
2023-02-28T15:52:18.636Z,1.50
2023-02-28T15:54:48.538Z,1.90
2023-02-28T15:57:22.845Z,1.88
2023-02-28T15:59:57.779Z,1.60
2023-02-28T16:02:34.257Z,1.30
2023-02-28T16:05:22.679Z,1.63
2023-02-28T16:07:51.277Z,1.77
2023-02-28T16:10:20.091Z,1.70
2023-02-28T16:12:50.080Z,1.48
2023-02-28T16:15:22.771Z,1.42
2023-02-28T16:17:51.441Z,1.40
2023-02-28T16:20:22.494Z,1.23
2023-02-28T16:22:51.331Z,1.27
2023-02-28T16:25:21.949Z,1.40
2023-02-28T16:27:55.316Z,1.73
2023-02-28T16:30:25.906Z,1.38
2023-02-28T16:32:56.900Z,1.70
2023-02-28T16:35:25.964Z,1.70
2023-02-28T16:37:55.732Z,1.60
2023-02-28T16:40:29.630Z,1.63
2023-02-28T16:43:02.482Z,1.80
2023-02-28T16:45:31.603Z,1.40
2023-02-28T16:48:00.284Z,1.53
2023-02-28T16:50:31.397Z,1.80
2023-02-28T16:53:00.037Z,1.58
2023-02-28T16:55:29.378Z,1.70
2023-02-28T16:58:02.050Z,1.30
2023-02-28T17:00:32.141Z,1.33
2023-02-28T17:03:01.246Z,1.25
2023-02-28T17:05:38.244Z,1.65
2023-02-28T17:08:07.134Z,1.40
2023-02-28T17:10:36.613Z,1.20
2023-02-28T17:13:14.897Z,1.40
2023-02-28T17:15:47.412Z,1.73
2023-02-28T17:18:19.895Z,1.52
2023-02-28T17:20:48.806Z,1.52
2023-02-28T17:23:17.445Z,1.50
2023-02-28T17:25:56.346Z,1.60
2023-02-28T17:28:27.624Z,1.30
2023-02-28T17:30:56.223Z,1.60
2023-02-28T17:33:24.909Z,1.48
2023-02-28T17:35:53.504Z,1.40
2023-02-28T17:38:23.999Z,1.70
2023-02-28T17:40:58.041Z,1.50
2023-02-28T17:43:29.577Z,1.42
2023-02-28T17:45:59.280Z,1.33
2023-02-28T17:48:28.609Z,1.30
2023-02-28T17:50:57.202Z,1.15
2023-02-28T17:53:25.915Z,0.95
2023-02-28T17:55:54.592Z,1.20
2023-02-28T17:58:23.282Z,1.38
2023-02-28T18:00:55.382Z,1.55
2023-02-28T18:03:25.321Z,1.70
2023-02-28T18:05:53.964Z,0.98
2023-02-28T18:08:23.165Z,1.10
2023-02-28T18:10:51.733Z,1.30
2023-02-28T18:13:20.308Z,0.90
2023-02-28T18:15:49.066Z,1.10
2023-02-28T18:18:19.054Z,1.00
2023-02-28T18:20:49.480Z,1.13
2023-02-28T18:23:20.576Z,0.70
2023-02-28T18:25:49.277Z,1.10
2023-02-28T18:28:17.867Z,0.98
2023-02-28T18:30:46.425Z,0.95
2023-02-28T18:33:15.034Z,1.33
2023-02-28T18:35:45.019Z,0.90
2023-02-28T18:38:17.025Z,0.82
2023-02-28T18:40:54.895Z,1.27
2023-02-28T18:43:23.763Z,1.20
2023-02-28T18:45:52.350Z,1.10
2023-02-28T18:48:23.325Z,1.02
2023-02-28T18:50:53.679Z,1.20
2023-02-28T18:53:22.268Z,1.17
2023-02-28T18:55:50.836Z,1.33
2023-02-28T18:58:19.444Z,1.48
2023-02-28T19:00:49.518Z,0.90
2023-02-28T19:03:18.144Z,1.08
2023-02-28T19:05:47.094Z,1.30
2023-02-28T19:08:17.036Z,1.20
2023-02-28T19:10:45.587Z,1.23
2023-02-28T19:13:14.406Z,1.30
2023-02-28T19:15:42.998Z,1.30
2023-02-28T19:18:11.585Z,1.40
2023-02-28T19:20:40.291Z,1.20
2023-02-28T19:23:10.496Z,1.15
2023-02-28T19:25:43.774Z,1.50
2023-02-28T19:28:13.096Z,1.27
2023-02-28T19:30:41.670Z,1.00
2023-02-28T19:33:10.284Z,1.27
2023-02-28T19:35:40.952Z,1.40
2023-02-28T19:38:09.992Z,1.30
2023-02-28T19:40:39.150Z,1.20
2023-02-28T19:43:09.745Z,1.27
2023-02-28T19:45:39.355Z,1.30
2023-02-28T19:48:10.003Z,1.40
2023-02-28T19:50:38.631Z,1.40
2023-02-28T19:53:07.193Z,1.50
2023-02-28T19:55:35.780Z,1.47
2023-02-28T19:58:04.341Z,1.43
2023-02-28T20:00:34.292Z,1.33
2023-02-28T20:03:02.872Z,1.52
2023-02-28T20:05:31.448Z,1.20
2023-02-28T20:08:00.046Z,1.30
2023-02-28T20:10:28.710Z,1.50
2023-02-28T20:12:57.514Z,1.40
2023-02-28T20:15:26.134Z,1.52
2023-02-28T20:17:57.427Z,1.40
2023-02-28T20:20:26.802Z,1.42
2023-02-28T20:22:55.397Z,1.50
2023-02-28T20:25:24.045Z,1.47
2023-02-28T20:27:52.624Z,1.47
2023-02-28T20:30:22.799Z,1.40
2023-02-28T20:32:51.473Z,1.45
2023-02-28T20:35:21.549Z,1.30
2023-02-28T20:37:50.398Z,1.50
2023-02-28T20:40:19.165Z,1.50
2023-02-28T20:42:48.272Z,1.63
2023-02-28T20:45:17.534Z,1.63
2023-02-28T20:47:46.102Z,1.80
2023-02-28T20:50:14.727Z,1.42
2023-02-28T20:52:45.159Z,1.60
2023-02-28T20:55:14.549Z,1.50
2023-02-28T20:57:43.141Z,1.55
2023-02-28T21:00:16.177Z,1.58
2023-02-28T21:02:44.881Z,1.40
2023-02-28T21:05:14.556Z,1.42
2023-02-28T21:07:44.500Z,1.30
2023-02-28T21:10:13.835Z,1.37
2023-02-28T21:12:42.373Z,1.40
2023-02-28T21:15:12.025Z,1.52
2023-02-28T21:17:40.599Z,1.60
2023-02-28T21:20:10.167Z,1.70
2023-02-28T21:22:38.720Z,1.40
2023-02-28T21:25:09.755Z,1.60
2023-02-28T21:27:38.328Z,1.50
2023-02-28T21:30:08.616Z,1.63
2023-02-28T21:32:37.229Z,1.50
2023-02-28T21:35:07.479Z,1.60
2023-02-28T21:37:38.270Z,1.63
2023-02-28T21:40:09.709Z,1.65
2023-02-28T21:42:38.302Z,1.70
2023-02-28T21:45:07.933Z,1.77
2023-02-28T21:47:36.516Z,1.48
2023-02-28T21:50:05.294Z,1.70
2023-02-28T21:52:33.868Z,1.52
2023-02-28T21:55:02.511Z,1.80
2023-02-28T21:57:32.471Z,1.70
2023-02-28T22:00:01.392Z,1.75
2023-02-28T22:02:30.411Z,1.65
2023-02-28T22:05:03.479Z,1.67
2023-02-28T22:07:32.031Z,1.87
2023-02-28T22:10:00.617Z,1.70
2023-02-28T22:12:32.547Z,1.70
2023-02-28T22:15:01.122Z,1.65
2023-02-28T22:17:29.718Z,1.50
2023-02-28T22:19:59.448Z,1.98
2023-02-28T22:22:28.038Z,1.80
2023-02-28T22:24:57.202Z,1.80
2023-02-28T22:27:25.796Z,1.83
2023-02-28T22:29:58.292Z,1.60
2023-02-28T22:32:26.973Z,1.50
2023-02-28T22:34:55.634Z,1.80
2023-02-28T22:37:24.245Z,1.70
2023-02-28T22:39:52.781Z,1.60
2023-02-28T22:42:21.546Z,1.67
2023-02-28T22:44:52.273Z,1.63
2023-02-28T22:47:22.355Z,1.70
2023-02-28T22:49:50.911Z,1.65
2023-02-28T22:52:19.647Z,1.90
2023-02-28T22:54:53.302Z,1.43
2023-02-28T22:57:21.932Z,1.80
2023-02-28T22:59:50.576Z,1.67
2023-02-28T23:02:19.168Z,1.63
2023-02-28T23:04:49.146Z,1.60
2023-02-28T23:07:17.785Z,1.75
2023-02-28T23:09:46.352Z,1.70
2023-02-28T23:12:14.954Z,1.65
2023-02-28T23:14:43.706Z,1.67
2023-02-28T23:17:12.925Z,1.50
2023-02-28T23:19:41.520Z,1.60
2023-02-28T23:22:11.505Z,1.52
2023-02-28T23:24:40.096Z,1.50
2023-02-28T23:27:09.372Z,1.80
2023-02-28T23:29:38.116Z,1.73
2023-02-28T23:32:07.003Z,1.60
2023-02-28T23:34:35.811Z,1.60
2023-02-28T23:37:04.523Z,1.70
2023-02-28T23:39:34.536Z,1.40
2023-02-28T23:42:03.177Z,1.60
2023-02-28T23:44:31.929Z,1.73
2023-02-28T23:47:00.849Z,1.73
2023-02-28T23:49:29.415Z,1.80
2023-02-28T23:51:58.044Z,1.80
2023-02-28T23:54:26.629Z,1.60
2023-02-28T23:56:56.652Z,1.42
2023-02-28T23:59:25.413Z,1.90
